sensor_id;sensor_type;location;lat;lon;timestamp;P1;durP1;ratioP1;P2;durP2;ratioP2
83096;SDS011;72968;49.460;11.004;2024-03-06T00:00:58;17.85;;;9.07;;
83096;SDS011;72968;49.460;11.004;2024-03-06T00:03:29;17.00;;;8.13;;
83096;SDS011;72968;49.460;11.004;2024-03-06T00:06:02;18.48;;;9.52;;
83096;SDS011;72968;49.460;11.004;2024-03-06T00:08:34;19.83;;;8.95;;
83096;SDS011;72968;49.460;11.004;2024-03-06T00:11:05;19.23;;;9.60;;
83096;SDS011;72968;49.460;11.004;2024-03-06T00:13:36;18.15;;;9.60;;
83096;SDS011;72968;49.460;11.004;2024-03-06T00:16:08;19.17;;;8.82;;
83096;SDS011;72968;49.460;11.004;2024-03-06T00:18:42;14.80;;;7.88;;
83096;SDS011;72968;49.460;11.004;2024-03-06T00:21:15;16.58;;;8.23;;
83096;SDS011;72968;49.460;11.004;2024-03-06T00:23:46;18.95;;;8.57;;
83096;SDS011;72968;49.460;11.004;2024-03-06T00:26:17;16.92;;;7.93;;
83096;SDS011;72968;49.460;11.004;2024-03-06T00:28:49;16.63;;;7.78;;
83096;SDS011;72968;49.460;11.004;2024-03-06T00:31:20;17.20;;;8.45;;
83096;SDS011;72968;49.460;11.004;2024-03-06T00:33:52;15.15;;;8.35;;
83096;SDS011;72968;49.460;11.004;2024-03-06T00:36:24;18.70;;;8.27;;
83096;SDS011;72968;49.460;11.004;2024-03-06T00:38:56;18.85;;;8.85;;
83096;SDS011;72968;49.460;11.004;2024-03-06T00:44:17;21.00;;;8.50;;
83096;SDS011;72968;49.460;11.004;2024-03-06T00:46:48;16.63;;;9.30;;
83096;SDS011;72968;49.460;11.004;2024-03-06T00:49:20;18.42;;;9.70;;
83096;SDS011;72968;49.460;11.004;2024-03-06T00:51:53;16.67;;;9.18;;
83096;SDS011;72968;49.460;11.004;2024-03-06T00:54:24;17.77;;;8.70;;
83096;SDS011;72968;49.460;11.004;2024-03-06T00:56:55;16.92;;;8.32;;
83096;SDS011;72968;49.460;11.004;2024-03-06T00:59:27;19.88;;;9.23;;
83096;SDS011;72968;49.460;11.004;2024-03-06T01:01:59;20.27;;;9.10;;
83096;SDS011;72968;49.460;11.004;2024-03-06T01:04:30;18.75;;;9.15;;
83096;SDS011;72968;49.460;11.004;2024-03-06T01:07:03;18.65;;;9.57;;
83096;SDS011;72968;49.460;11.004;2024-03-06T01:09:34;18.98;;;9.32;;
83096;SDS011;72968;49.460;11.004;2024-03-06T01:12:06;17.50;;;9.13;;
83096;SDS011;72968;49.460;11.004;2024-03-06T01:14:37;20.92;;;10.63;;
83096;SDS011;72968;49.460;11.004;2024-03-06T01:17:09;20.58;;;10.15;;
83096;SDS011;72968;49.460;11.004;2024-03-06T01:19:41;22.33;;;10.10;;
83096;SDS011;72968;49.460;11.004;2024-03-06T01:22:14;18.95;;;9.30;;
83096;SDS011;72968;49.460;11.004;2024-03-06T01:24:46;21.65;;;9.85;;
83096;SDS011;72968;49.460;11.004;2024-03-06T01:27:19;22.67;;;10.55;;
83096;SDS011;72968;49.460;11.004;2024-03-06T01:29:50;23.90;;;11.18;;
83096;SDS011;72968;49.460;11.004;2024-03-06T01:32:22;23.00;;;11.02;;
83096;SDS011;72968;49.460;11.004;2024-03-06T01:34:53;21.30;;;10.98;;
83096;SDS011;72968;49.460;11.004;2024-03-06T01:37:27;24.52;;;11.05;;
83096;SDS011;72968;49.460;11.004;2024-03-06T01:39:58;22.05;;;10.00;;
83096;SDS011;72968;49.460;11.004;2024-03-06T01:42:29;21.90;;;10.93;;
83096;SDS011;72968;49.460;11.004;2024-03-06T01:45:01;23.08;;;11.73;;
83096;SDS011;72968;49.460;11.004;2024-03-06T01:47:33;21.98;;;11.80;;
83096;SDS011;72968;49.460;11.004;2024-03-06T01:50:05;21.73;;;10.63;;
83096;SDS011;72968;49.460;11.004;2024-03-06T01:52:40;21.92;;;10.55;;
83096;SDS011;72968;49.460;11.004;2024-03-06T01:55:12;22.77;;;10.27;;
83096;SDS011;72968;49.460;11.004;2024-03-06T01:57:45;24.10;;;11.93;;
83096;SDS011;72968;49.460;11.004;2024-03-06T02:00:17;23.65;;;11.57;;
83096;SDS011;72968;49.460;11.004;2024-03-06T02:02:48;26.23;;;11.77;;
83096;SDS011;72968;49.460;11.004;2024-03-06T02:05:20;21.83;;;11.10;;
83096;SDS011;72968;49.460;11.004;2024-03-06T02:07:54;21.95;;;10.98;;
83096;SDS011;72968;49.460;11.004;2024-03-06T02:10:27;22.35;;;11.07;;
83096;SDS011;72968;49.460;11.004;2024-03-06T02:12:59;23.27;;;11.82;;
83096;SDS011;72968;49.460;11.004;2024-03-06T02:15:33;26.20;;;10.77;;
83096;SDS011;72968;49.460;11.004;2024-03-06T02:18:04;21.83;;;10.30;;
83096;SDS011;72968;49.460;11.004;2024-03-06T02:20:40;21.83;;;10.77;;
83096;SDS011;72968;49.460;11.004;2024-03-06T02:23:11;22.85;;;10.55;;
83096;SDS011;72968;49.460;11.004;2024-03-06T02:25:50;22.00;;;10.57;;
83096;SDS011;72968;49.460;11.004;2024-03-06T02:28:22;23.77;;;11.75;;
83096;SDS011;72968;49.460;11.004;2024-03-06T02:30:55;23.83;;;12.13;;
83096;SDS011;72968;49.460;11.004;2024-03-06T02:33:28;23.25;;;10.98;;
83096;SDS011;72968;49.460;11.004;2024-03-06T02:36:01;24.30;;;11.10;;
83096;SDS011;72968;49.460;11.004;2024-03-06T02:38:36;25.30;;;11.93;;
83096;SDS011;72968;49.460;11.004;2024-03-06T02:41:07;26.83;;;12.30;;
83096;SDS011;72968;49.460;11.004;2024-03-06T02:43:40;23.80;;;11.15;;
83096;SDS011;72968;49.460;11.004;2024-03-06T02:46:13;27.63;;;12.32;;
83096;SDS011;72968;49.460;11.004;2024-03-06T02:48:45;27.77;;;12.50;;
83096;SDS011;72968;49.460;11.004;2024-03-06T02:51:19;25.17;;;10.98;;
83096;SDS011;72968;49.460;11.004;2024-03-06T02:53:53;24.23;;;12.20;;
83096;SDS011;72968;49.460;11.004;2024-03-06T02:56:24;28.30;;;12.45;;
83096;SDS011;72968;49.460;11.004;2024-03-06T02:58:55;25.98;;;11.45;;
83096;SDS011;72968;49.460;11.004;2024-03-06T03:01:27;28.73;;;12.15;;
83096;SDS011;72968;49.460;11.004;2024-03-06T03:03:59;27.05;;;11.65;;
83096;SDS011;72968;49.460;11.004;2024-03-06T03:06:32;26.80;;;11.65;;
83096;SDS011;72968;49.460;11.004;2024-03-06T03:09:04;26.00;;;12.30;;
83096;SDS011;72968;49.460;11.004;2024-03-06T03:11:36;25.42;;;11.70;;
83096;SDS011;72968;49.460;11.004;2024-03-06T03:14:07;26.27;;;11.60;;
83096;SDS011;72968;49.460;11.004;2024-03-06T03:16:39;23.30;;;11.55;;
83096;SDS011;72968;49.460;11.004;2024-03-06T03:19:11;23.77;;;11.88;;
83096;SDS011;72968;49.460;11.004;2024-03-06T03:21:44;27.20;;;12.20;;
83096;SDS011;72968;49.460;11.004;2024-03-06T03:24:17;28.40;;;12.02;;
83096;SDS011;72968;49.460;11.004;2024-03-06T03:26:50;28.23;;;13.18;;
83096;SDS011;72968;49.460;11.004;2024-03-06T03:29:22;32.53;;;12.75;;
83096;SDS011;72968;49.460;11.004;2024-03-06T03:31:53;32.08;;;14.00;;
83096;SDS011;72968;49.460;11.004;2024-03-06T03:34:28;31.50;;;12.70;;
83096;SDS011;72968;49.460;11.004;2024-03-06T03:37:02;31.17;;;12.82;;
83096;SDS011;72968;49.460;11.004;2024-03-06T03:39:35;30.00;;;13.50;;
83096;SDS011;72968;49.460;11.004;2024-03-06T03:42:06;34.38;;;13.98;;
83096;SDS011;72968;49.460;11.004;2024-03-06T03:44:38;26.92;;;12.02;;
83096;SDS011;72968;49.460;11.004;2024-03-06T03:47:10;34.25;;;13.95;;
83096;SDS011;72968;49.460;11.004;2024-03-06T03:49:42;35.55;;;13.07;;
83096;SDS011;72968;49.460;11.004;2024-03-06T03:52:15;37.28;;;15.55;;
83096;SDS011;72968;49.460;11.004;2024-03-06T03:54:47;32.50;;;13.95;;
83096;SDS011;72968;49.460;11.004;2024-03-06T03:57:18;30.40;;;13.05;;
83096;SDS011;72968;49.460;11.004;2024-03-06T03:59:53;31.33;;;13.68;;
83096;SDS011;72968;49.460;11.004;2024-03-06T04:02:25;33.95;;;14.10;;
83096;SDS011;72968;49.460;11.004;2024-03-06T04:04:58;28.60;;;13.30;;
83096;SDS011;72968;49.460;11.004;2024-03-06T04:07:31;30.67;;;12.98;;
83096;SDS011;72968;49.460;11.004;2024-03-06T04:10:04;28.70;;;13.15;;
83096;SDS011;72968;49.460;11.004;2024-03-06T04:12:36;27.33;;;13.27;;
83096;SDS011;72968;49.460;11.004;2024-03-06T04:15:07;30.60;;;13.38;;
83096;SDS011;72968;49.460;11.004;2024-03-06T04:17:41;32.20;;;13.35;;
83096;SDS011;72968;49.460;11.004;2024-03-06T04:20:13;27.20;;;12.43;;
83096;SDS011;72968;49.460;11.004;2024-03-06T04:22:47;30.65;;;13.50;;
83096;SDS011;72968;49.460;11.004;2024-03-06T04:25:21;29.77;;;12.85;;
83096;SDS011;72968;49.460;11.004;2024-03-06T04:27:53;32.65;;;14.02;;
83096;SDS011;72968;49.460;11.004;2024-03-06T04:30:25;34.15;;;15.02;;
83096;SDS011;72968;49.460;11.004;2024-03-06T04:32:56;29.55;;;13.02;;
83096;SDS011;72968;49.460;11.004;2024-03-06T04:35:32;36.65;;;14.20;;
83096;SDS011;72968;49.460;11.004;2024-03-06T04:38:05;28.85;;;12.55;;
83096;SDS011;72968;49.460;11.004;2024-03-06T04:40:39;28.52;;;12.75;;
83096;SDS011;72968;49.460;11.004;2024-03-06T04:43:11;33.97;;;15.73;;
83096;SDS011;72968;49.460;11.004;2024-03-06T04:45:44;35.83;;;14.45;;
83096;SDS011;72968;49.460;11.004;2024-03-06T04:48:21;29.77;;;13.40;;
83096;SDS011;72968;49.460;11.004;2024-03-06T04:50:56;33.00;;;15.20;;
83096;SDS011;72968;49.460;11.004;2024-03-06T04:53:31;33.80;;;14.18;;
83096;SDS011;72968;49.460;11.004;2024-03-06T04:56:06;35.97;;;14.98;;
83096;SDS011;72968;49.460;11.004;2024-03-06T04:58:37;33.67;;;12.43;;
83096;SDS011;72968;49.460;11.004;2024-03-06T05:01:11;33.25;;;14.77;;
83096;SDS011;72968;49.460;11.004;2024-03-06T05:03:44;37.80;;;14.43;;
83096;SDS011;72968;49.460;11.004;2024-03-06T05:06:17;34.72;;;15.52;;
83096;SDS011;72968;49.460;11.004;2024-03-06T05:08:51;35.08;;;14.77;;
83096;SDS011;72968;49.460;11.004;2024-03-06T05:11:24;32.08;;;14.20;;
83096;SDS011;72968;49.460;11.004;2024-03-06T05:13:57;36.45;;;14.55;;
83096;SDS011;72968;49.460;11.004;2024-03-06T05:16:31;38.78;;;13.52;;
83096;SDS011;72968;49.460;11.004;2024-03-06T05:19:02;35.83;;;14.98;;
83096;SDS011;72968;49.460;11.004;2024-03-06T05:21:36;41.08;;;15.73;;
83096;SDS011;72968;49.460;11.004;2024-03-06T05:24:16;36.95;;;15.40;;
83096;SDS011;72968;49.460;11.004;2024-03-06T05:26:51;36.08;;;15.18;;
83096;SDS011;72968;49.460;11.004;2024-03-06T05:29:25;39.97;;;16.02;;
83096;SDS011;72968;49.460;11.004;2024-03-06T05:31:57;33.65;;;15.90;;
83096;SDS011;72968;49.460;11.004;2024-03-06T05:34:31;40.78;;;15.73;;
83096;SDS011;72968;49.460;11.004;2024-03-06T05:37:03;36.47;;;13.80;;
83096;SDS011;72968;49.460;11.004;2024-03-06T05:39:37;40.35;;;15.52;;
83096;SDS011;72968;49.460;11.004;2024-03-06T05:42:09;40.08;;;15.15;;
83096;SDS011;72968;49.460;11.004;2024-03-06T05:44:40;42.80;;;15.25;;
83096;SDS011;72968;49.460;11.004;2024-03-06T05:47:20;39.08;;;14.18;;
83096;SDS011;72968;49.460;11.004;2024-03-06T05:49:52;40.83;;;16.55;;
83096;SDS011;72968;49.460;11.004;2024-03-06T05:52:24;40.28;;;16.38;;
83096;SDS011;72968;49.460;11.004;2024-03-06T05:54:59;43.70;;;16.08;;
83096;SDS011;72968;49.460;11.004;2024-03-06T05:57:31;46.40;;;16.65;;
83096;SDS011;72968;49.460;11.004;2024-03-06T06:00:04;51.85;;;18.17;;
83096;SDS011;72968;49.460;11.004;2024-03-06T06:02:41;39.63;;;15.88;;
83096;SDS011;72968;49.460;11.004;2024-03-06T06:05:16;43.78;;;17.02;;
83096;SDS011;72968;49.460;11.004;2024-03-06T06:07:49;40.90;;;15.77;;
83096;SDS011;72968;49.460;11.004;2024-03-06T06:10:22;38.20;;;15.07;;
83096;SDS011;72968;49.460;11.004;2024-03-06T06:12:54;38.97;;;16.20;;
83096;SDS011;72968;49.460;11.004;2024-03-06T06:15:25;39.30;;;15.02;;
83096;SDS011;72968;49.460;11.004;2024-03-06T06:17:57;38.22;;;14.30;;
83096;SDS011;72968;49.460;11.004;2024-03-06T06:20:30;40.05;;;15.95;;
83096;SDS011;72968;49.460;11.004;2024-03-06T06:23:11;37.60;;;15.43;;
83096;SDS011;72968;49.460;11.004;2024-03-06T06:25:47;36.40;;;14.90;;
83096;SDS011;72968;49.460;11.004;2024-03-06T06:28:22;36.95;;;14.35;;
83096;SDS011;72968;49.460;11.004;2024-03-06T06:30:55;36.67;;;15.10;;
83096;SDS011;72968;49.460;11.004;2024-03-06T06:33:29;33.53;;;15.05;;
83096;SDS011;72968;49.460;11.004;2024-03-06T06:36:02;38.78;;;15.32;;
83096;SDS011;72968;49.460;11.004;2024-03-06T06:38:35;39.08;;;15.05;;
83096;SDS011;72968;49.460;11.004;2024-03-06T06:41:10;36.50;;;15.57;;
83096;SDS011;72968;49.460;11.004;2024-03-06T06:43:41;34.17;;;12.82;;
83096;SDS011;72968;49.460;11.004;2024-03-06T06:46:13;34.47;;;15.23;;
83096;SDS011;72968;49.460;11.004;2024-03-06T06:48:46;35.45;;;14.52;;
83096;SDS011;72968;49.460;11.004;2024-03-06T06:51:19;33.03;;;13.73;;
83096;SDS011;72968;49.460;11.004;2024-03-06T06:53:51;38.95;;;14.32;;
83096;SDS011;72968;49.460;11.004;2024-03-06T06:56:24;36.60;;;15.25;;
83096;SDS011;72968;49.460;11.004;2024-03-06T06:58:56;35.42;;;14.63;;
83096;SDS011;72968;49.460;11.004;2024-03-06T07:01:32;35.42;;;14.98;;
83096;SDS011;72968;49.460;11.004;2024-03-06T07:04:04;34.50;;;15.05;;
83096;SDS011;72968;49.460;11.004;2024-03-06T07:06:38;34.28;;;14.52;;
83096;SDS011;72968;49.460;11.004;2024-03-06T07:09:11;35.92;;;13.98;;
83096;SDS011;72968;49.460;11.004;2024-03-06T07:11:54;29.90;;;13.43;;
83096;SDS011;72968;49.460;11.004;2024-03-06T07:14:28;30.13;;;12.90;;
83096;SDS011;72968;49.460;11.004;2024-03-06T07:17:01;34.25;;;13.68;;
83096;SDS011;72968;49.460;11.004;2024-03-06T07:19:37;31.05;;;13.38;;
83096;SDS011;72968;49.460;11.004;2024-03-06T07:22:11;33.17;;;13.65;;
83096;SDS011;72968;49.460;11.004;2024-03-06T07:24:44;30.30;;;13.23;;
83096;SDS011;72968;49.460;11.004;2024-03-06T07:27:20;34.78;;;14.27;;
83096;SDS011;72968;49.460;11.004;2024-03-06T07:29:53;28.02;;;12.23;;
83096;SDS011;72968;49.460;11.004;2024-03-06T07:32:25;28.20;;;13.10;;
83096;SDS011;72968;49.460;11.004;2024-03-06T07:34:58;30.92;;;13.20;;
83096;SDS011;72968;49.460;11.004;2024-03-06T07:37:30;28.20;;;13.35;;
83096;SDS011;72968;49.460;11.004;2024-03-06T07:40:04;28.75;;;13.48;;
83096;SDS011;72968;49.460;11.004;2024-03-06T07:42:41;29.25;;;13.88;;
83096;SDS011;72968;49.460;11.004;2024-03-06T07:45:13;32.33;;;13.43;;
83096;SDS011;72968;49.460;11.004;2024-03-06T07:47:46;31.90;;;13.63;;
83096;SDS011;72968;49.460;11.004;2024-03-06T07:50:18;30.70;;;12.98;;
83096;SDS011;72968;49.460;11.004;2024-03-06T07:52:51;26.55;;;11.85;;
83096;SDS011;72968;49.460;11.004;2024-03-06T07:55:24;32.33;;;12.98;;
83096;SDS011;72968;49.460;11.004;2024-03-06T07:57:58;30.67;;;12.52;;
83096;SDS011;72968;49.460;11.004;2024-03-06T08:00:30;25.73;;;10.90;;
83096;SDS011;72968;49.460;11.004;2024-03-06T08:03:02;25.83;;;12.52;;
83096;SDS011;72968;49.460;11.004;2024-03-06T08:05:35;26.10;;;11.52;;
83096;SDS011;72968;49.460;11.004;2024-03-06T08:08:07;26.35;;;11.88;;
83096;SDS011;72968;49.460;11.004;2024-03-06T08:10:39;27.70;;;11.77;;
83096;SDS011;72968;49.460;11.004;2024-03-06T08:13:13;26.70;;;10.65;;
83096;SDS011;72968;49.460;11.004;2024-03-06T08:15:49;24.35;;;11.73;;
83096;SDS011;72968;49.460;11.004;2024-03-06T08:18:28;28.30;;;10.85;;
83096;SDS011;72968;49.460;11.004;2024-03-06T08:21:02;25.30;;;9.68;;
83096;SDS011;72968;49.460;11.004;2024-03-06T08:23:35;20.95;;;8.68;;
83096;SDS011;72968;49.460;11.004;2024-03-06T08:26:06;21.15;;;9.32;;
83096;SDS011;72968;49.460;11.004;2024-03-06T08:28:39;23.45;;;10.20;;
83096;SDS011;72968;49.460;11.004;2024-03-06T08:31:12;23.55;;;10.57;;
83096;SDS011;72968;49.460;11.004;2024-03-06T08:33:46;21.52;;;9.90;;
83096;SDS011;72968;49.460;11.004;2024-03-06T08:36:19;27.23;;;9.82;;
83096;SDS011;72968;49.460;11.004;2024-03-06T08:38:51;23.17;;;10.15;;
83096;SDS011;72968;49.460;11.004;2024-03-06T08:41:24;19.92;;;9.45;;
83096;SDS011;72968;49.460;11.004;2024-03-06T08:43:57;22.08;;;10.38;;
83096;SDS011;72968;49.460;11.004;2024-03-06T08:46:30;24.63;;;9.63;;
83096;SDS011;72968;49.460;11.004;2024-03-06T08:49:01;18.88;;;8.40;;
83096;SDS011;72968;49.460;11.004;2024-03-06T08:51:33;19.05;;;7.93;;
83096;SDS011;72968;49.460;11.004;2024-03-06T08:54:05;20.33;;;8.75;;
83096;SDS011;72968;49.460;11.004;2024-03-06T08:56:37;21.80;;;8.82;;
83096;SDS011;72968;49.460;11.004;2024-03-06T08:59:10;20.48;;;7.13;;
83096;SDS011;72968;49.460;11.004;2024-03-06T09:01:42;21.63;;;9.73;;
83096;SDS011;72968;49.460;11.004;2024-03-06T09:04:13;15.88;;;7.32;;
83096;SDS011;72968;49.460;11.004;2024-03-06T09:06:45;20.63;;;9.15;;
83096;SDS011;72968;49.460;11.004;2024-03-06T09:09:16;22.75;;;8.45;;
83096;SDS011;72968;49.460;11.004;2024-03-06T09:11:48;20.08;;;7.97;;
83096;SDS011;72968;49.460;11.004;2024-03-06T09:14:21;23.00;;;9.00;;
83096;SDS011;72968;49.460;11.004;2024-03-06T09:16:53;22.83;;;8.75;;
83096;SDS011;72968;49.460;11.004;2024-03-06T09:19:25;19.42;;;7.60;;
83096;SDS011;72968;49.460;11.004;2024-03-06T09:21:57;19.83;;;8.35;;
83096;SDS011;72968;49.460;11.004;2024-03-06T09:24:28;21.40;;;8.63;;
83096;SDS011;72968;49.460;11.004;2024-03-06T09:27:03;21.30;;;8.40;;
83096;SDS011;72968;49.460;11.004;2024-03-06T09:29:36;21.58;;;8.52;;
83096;SDS011;72968;49.460;11.004;2024-03-06T09:32:09;20.48;;;8.82;;
83096;SDS011;72968;49.460;11.004;2024-03-06T09:34:43;19.15;;;8.05;;
83096;SDS011;72968;49.460;11.004;2024-03-06T09:37:15;17.77;;;8.55;;
83096;SDS011;72968;49.460;11.004;2024-03-06T09:39:48;19.30;;;8.82;;
83096;SDS011;72968;49.460;11.004;2024-03-06T09:42:22;16.88;;;7.50;;
83096;SDS011;72968;49.460;11.004;2024-03-06T09:44:56;15.65;;;7.85;;
83096;SDS011;72968;49.460;11.004;2024-03-06T09:47:28;16.35;;;8.82;;
83096;SDS011;72968;49.460;11.004;2024-03-06T09:50:03;16.55;;;8.57;;
83096;SDS011;72968;49.460;11.004;2024-03-06T09:52:38;16.88;;;6.07;;
83096;SDS011;72968;49.460;11.004;2024-03-06T09:55:11;18.50;;;8.20;;
83096;SDS011;72968;49.460;11.004;2024-03-06T09:57:44;17.42;;;7.95;;
83096;SDS011;72968;49.460;11.004;2024-03-06T10:00:20;17.75;;;8.20;;
83096;SDS011;72968;49.460;11.004;2024-03-06T10:02:54;18.02;;;7.20;;
83096;SDS011;72968;49.460;11.004;2024-03-06T10:08:00;14.35;;;7.05;;
83096;SDS011;72968;49.460;11.004;2024-03-06T10:10:32;17.65;;;7.88;;
83096;SDS011;72968;49.460;11.004;2024-03-06T10:13:04;18.58;;;8.13;;
83096;SDS011;72968;49.460;11.004;2024-03-06T10:15:39;18.48;;;7.80;;
83096;SDS011;72968;49.460;11.004;2024-03-06T10:18:11;16.92;;;7.70;;
83096;SDS011;72968;49.460;11.004;2024-03-06T10:20:43;15.38;;;8.07;;
83096;SDS011;72968;49.460;11.004;2024-03-06T10:23:15;17.38;;;7.93;;
83096;SDS011;72968;49.460;11.004;2024-03-06T10:25:48;17.67;;;8.07;;
83096;SDS011;72968;49.460;11.004;2024-03-06T10:28:22;19.63;;;8.30;;
83096;SDS011;72968;49.460;11.004;2024-03-06T10:31:02;15.48;;;8.45;;
83096;SDS011;72968;49.460;11.004;2024-03-06T10:33:34;16.85;;;8.23;;
83096;SDS011;72968;49.460;11.004;2024-03-06T10:36:09;17.20;;;8.93;;
83096;SDS011;72968;49.460;11.004;2024-03-06T10:38:41;20.55;;;9.10;;
83096;SDS011;72968;49.460;11.004;2024-03-06T10:41:15;16.13;;;7.90;;
83096;SDS011;72968;49.460;11.004;2024-03-06T10:43:48;16.95;;;7.65;;
83096;SDS011;72968;49.460;11.004;2024-03-06T10:46:22;18.65;;;8.43;;
83096;SDS011;72968;49.460;11.004;2024-03-06T10:48:54;19.52;;;7.78;;
83096;SDS011;72968;49.460;11.004;2024-03-06T10:51:28;18.70;;;8.48;;
83096;SDS011;72968;49.460;11.004;2024-03-06T10:54:02;18.95;;;7.95;;
83096;SDS011;72968;49.460;11.004;2024-03-06T10:56:34;16.60;;;7.63;;
83096;SDS011;72968;49.460;11.004;2024-03-06T10:59:09;17.85;;;8.00;;
83096;SDS011;72968;49.460;11.004;2024-03-06T11:01:43;18.58;;;8.82;;
83096;SDS011;72968;49.460;11.004;2024-03-06T11:04:15;17.88;;;8.05;;
83096;SDS011;72968;49.460;11.004;2024-03-06T11:06:50;16.95;;;7.75;;
83096;SDS011;72968;49.460;11.004;2024-03-06T11:09:22;20.52;;;9.15;;
83096;SDS011;72968;49.460;11.004;2024-03-06T11:11:54;21.98;;;8.80;;
83096;SDS011;72968;49.460;11.004;2024-03-06T11:14:26;23.58;;;8.90;;
83096;SDS011;72968;49.460;11.004;2024-03-06T11:16:59;21.27;;;8.63;;
83096;SDS011;72968;49.460;11.004;2024-03-06T11:19:32;21.05;;;8.25;;
83096;SDS011;72968;49.460;11.004;2024-03-06T11:22:03;18.23;;;8.75;;
83096;SDS011;72968;49.460;11.004;2024-03-06T11:24:36;21.65;;;9.60;;
83096;SDS011;72968;49.460;11.004;2024-03-06T11:27:08;17.75;;;8.05;;
83096;SDS011;72968;49.460;11.004;2024-03-06T11:32:33;17.17;;;6.70;;
83096;SDS011;72968;49.460;11.004;2024-03-06T11:35:05;18.17;;;8.00;;
83096;SDS011;72968;49.460;11.004;2024-03-06T11:37:45;16.25;;;7.53;;
83096;SDS011;72968;49.460;11.004;2024-03-06T11:40:21;14.98;;;7.93;;
83096;SDS011;72968;49.460;11.004;2024-03-06T11:42:55;19.15;;;7.97;;
83096;SDS011;72968;49.460;11.004;2024-03-06T11:45:28;15.57;;;6.50;;
83096;SDS011;72968;49.460;11.004;2024-03-06T11:48:04;15.90;;;7.07;;
83096;SDS011;72968;49.460;11.004;2024-03-06T11:50:44;15.27;;;6.38;;
83096;SDS011;72968;49.460;11.004;2024-03-06T11:53:16;15.88;;;6.63;;
83096;SDS011;72968;49.460;11.004;2024-03-06T11:55:50;15.88;;;6.45;;
83096;SDS011;72968;49.460;11.004;2024-03-06T11:58:22;14.43;;;6.45;;
83096;SDS011;72968;49.460;11.004;2024-03-06T12:00:54;14.07;;;6.65;;
83096;SDS011;72968;49.460;11.004;2024-03-06T12:03:29;20.38;;;7.93;;
83096;SDS011;72968;49.460;11.004;2024-03-06T12:06:03;13.70;;;6.35;;
83096;SDS011;72968;49.460;11.004;2024-03-06T12:08:36;14.90;;;6.75;;
83096;SDS011;72968;49.460;11.004;2024-03-06T12:11:08;16.45;;;7.30;;
83096;SDS011;72968;49.460;11.004;2024-03-06T12:13:43;16.52;;;6.88;;
83096;SDS011;72968;49.460;11.004;2024-03-06T12:16:14;15.82;;;7.60;;
83096;SDS011;72968;49.460;11.004;2024-03-06T12:18:52;18.02;;;8.18;;
83096;SDS011;72968;49.460;11.004;2024-03-06T12:21:27;16.02;;;7.75;;
83096;SDS011;72968;49.460;11.004;2024-03-06T12:24:05;19.10;;;8.30;;
83096;SDS011;72968;49.460;11.004;2024-03-06T12:26:37;16.95;;;7.88;;
83096;SDS011;72968;49.460;11.004;2024-03-06T12:29:09;15.23;;;7.50;;
83096;SDS011;72968;49.460;11.004;2024-03-06T12:31:41;16.88;;;6.75;;
83096;SDS011;72968;49.460;11.004;2024-03-06T12:34:16;17.50;;;7.53;;
83096;SDS011;72968;49.460;11.004;2024-03-06T12:36:48;16.85;;;7.50;;
83096;SDS011;72968;49.460;11.004;2024-03-06T12:39:23;19.67;;;7.80;;
83096;SDS011;72968;49.460;11.004;2024-03-06T12:41:54;14.02;;;6.15;;
83096;SDS011;72968;49.460;11.004;2024-03-06T12:44:26;15.55;;;6.88;;
83096;SDS011;72968;49.460;11.004;2024-03-06T12:46:58;17.52;;;7.68;;
83096;SDS011;72968;49.460;11.004;2024-03-06T12:49:32;16.65;;;7.78;;
83096;SDS011;72968;49.460;11.004;2024-03-06T12:52:04;13.88;;;6.80;;
83096;SDS011;72968;49.460;11.004;2024-03-06T12:54:36;12.85;;;6.40;;
83096;SDS011;72968;49.460;11.004;2024-03-06T12:57:08;14.90;;;6.65;;
83096;SDS011;72968;49.460;11.004;2024-03-06T12:59:40;14.10;;;6.90;;
83096;SDS011;72968;49.460;11.004;2024-03-06T13:02:12;12.70;;;6.68;;
83096;SDS011;72968;49.460;11.004;2024-03-06T13:04:49;12.52;;;5.93;;
83096;SDS011;72968;49.460;11.004;2024-03-06T13:07:24;17.08;;;7.57;;
83096;SDS011;72968;49.460;11.004;2024-03-06T13:09:57;17.98;;;6.93;;
83096;SDS011;72968;49.460;11.004;2024-03-06T13:12:31;14.73;;;7.68;;
83096;SDS011;72968;49.460;11.004;2024-03-06T13:15:05;15.13;;;7.30;;
83096;SDS011;72968;49.460;11.004;2024-03-06T13:17:52;13.00;;;6.93;;
83096;SDS011;72968;49.460;11.004;2024-03-06T13:20:25;13.07;;;6.47;;
83096;SDS011;72968;49.460;11.004;2024-03-06T13:23:01;18.15;;;7.13;;
83096;SDS011;72968;49.460;11.004;2024-03-06T13:25:33;14.55;;;6.47;;
83096;SDS011;72968;49.460;11.004;2024-03-06T13:28:07;15.10;;;6.82;;
83096;SDS011;72968;49.460;11.004;2024-03-06T13:30:40;15.23;;;7.30;;
83096;SDS011;72968;49.460;11.004;2024-03-06T13:33:13;13.60;;;6.97;;
83096;SDS011;72968;49.460;11.004;2024-03-06T13:35:46;14.02;;;7.03;;
83096;SDS011;72968;49.460;11.004;2024-03-06T13:38:18;13.32;;;6.53;;
83096;SDS011;72968;49.460;11.004;2024-03-06T13:40:49;13.90;;;6.18;;
83096;SDS011;72968;49.460;11.004;2024-03-06T13:43:21;15.88;;;7.40;;
83096;SDS011;72968;49.460;11.004;2024-03-06T13:45:56;13.27;;;7.30;;
83096;SDS011;72968;49.460;11.004;2024-03-06T13:48:28;17.98;;;6.85;;
83096;SDS011;72968;49.460;11.004;2024-03-06T13:51:01;12.50;;;6.45;;
83096;SDS011;72968;49.460;11.004;2024-03-06T13:53:33;16.17;;;7.30;;
83096;SDS011;72968;49.460;11.004;2024-03-06T13:56:04;16.38;;;7.43;;
83096;SDS011;72968;49.460;11.004;2024-03-06T13:58:39;13.85;;;6.95;;
83096;SDS011;72968;49.460;11.004;2024-03-06T14:01:11;13.98;;;6.88;;
83096;SDS011;72968;49.460;11.004;2024-03-06T14:03:43;15.27;;;6.93;;
83096;SDS011;72968;49.460;11.004;2024-03-06T14:06:16;16.63;;;7.75;;
83096;SDS011;72968;49.460;11.004;2024-03-06T14:08:48;16.33;;;7.07;;
83096;SDS011;72968;49.460;11.004;2024-03-06T14:11:19;14.00;;;6.93;;
83096;SDS011;72968;49.460;11.004;2024-03-06T14:13:50;13.32;;;6.50;;
83096;SDS011;72968;49.460;11.004;2024-03-06T14:16:23;15.38;;;6.85;;
83096;SDS011;72968;49.460;11.004;2024-03-06T14:18:57;14.15;;;6.93;;
83096;SDS011;72968;49.460;11.004;2024-03-06T14:21:34;15.52;;;7.15;;
83096;SDS011;72968;49.460;11.004;2024-03-06T14:24:06;13.70;;;7.45;;
83096;SDS011;72968;49.460;11.004;2024-03-06T14:26:37;12.77;;;6.88;;
83096;SDS011;72968;49.460;11.004;2024-03-06T14:29:09;13.15;;;6.65;;
83096;SDS011;72968;49.460;11.004;2024-03-06T14:31:40;15.40;;;7.60;;
83096;SDS011;72968;49.460;11.004;2024-03-06T14:34:14;14.50;;;6.80;;
83096;SDS011;72968;49.460;11.004;2024-03-06T14:39:59;16.35;;;7.65;;
83096;SDS011;72968;49.460;11.004;2024-03-06T14:42:31;16.50;;;7.78;;
83096;SDS011;72968;49.460;11.004;2024-03-06T14:45:06;16.33;;;7.00;;
83096;SDS011;72968;49.460;11.004;2024-03-06T14:47:39;15.07;;;7.47;;
83096;SDS011;72968;49.460;11.004;2024-03-06T14:50:12;13.40;;;7.20;;
83096;SDS011;72968;49.460;11.004;2024-03-06T14:52:43;16.42;;;7.03;;
83096;SDS011;72968;49.460;11.004;2024-03-06T14:55:18;14.98;;;7.03;;
83096;SDS011;72968;49.460;11.004;2024-03-06T14:57:50;14.80;;;7.38;;
83096;SDS011;72968;49.460;11.004;2024-03-06T15:00:23;18.48;;;8.50;;